createdAt,value
2023-05-06T00:01:56.243Z,101943.28
2023-05-06T00:04:25.238Z,101934.09
2023-05-06T00:06:53.432Z,101930.72
2023-05-06T00:09:21.131Z,101933.38
2023-05-06T00:11:48.927Z,101933.94
2023-05-06T00:14:17.134Z,101923.34
2023-05-06T00:16:44.916Z,101928.53
2023-05-06T00:19:12.708Z,101932.72
2023-05-06T00:21:41.772Z,101922.38
2023-05-06T00:24:09.484Z,101924.88
2023-05-06T00:26:37.051Z,101926.44
2023-05-06T00:29:04.744Z,101918.63
2023-05-06T00:31:32.356Z,101921.97
2023-05-06T00:34:00.409Z,101924.59
2023-05-06T00:36:28.292Z,101922.69
2023-05-06T00:38:57.415Z,101898.84
2023-05-06T00:41:25.055Z,101906.50
2023-05-06T00:43:52.683Z,101910.97
2023-05-06T00:46:20.563Z,101901.34
2023-05-06T00:48:48.360Z,101917.09
2023-05-06T00:51:16.374Z,101913.34
2023-05-06T00:53:46.687Z,101906.22
2023-05-06T00:56:20.057Z,101917.94
2023-05-06T00:58:49.104Z,101914.19
2023-05-06T01:01:17.442Z,101902.06
2023-05-06T01:03:45.501Z,101892.97
2023-05-06T01:06:20.618Z,101912.22
2023-05-06T01:08:56.375Z,101915.69
2023-05-06T01:11:34.056Z,101913.72
2023-05-06T01:14:07.141Z,101914.44
2023-05-06T01:16:41.302Z,101912.94
2023-05-06T01:19:10.978Z,101923.25
2023-05-06T01:21:42.716Z,101912.38
2023-05-06T01:24:11.653Z,101927.41
2023-05-06T01:26:40.983Z,101910.53
2023-05-06T01:29:08.688Z,101910.53
2023-05-06T01:31:43.919Z,101937.84
2023-05-06T01:34:16.922Z,101930.91
2023-05-06T01:36:50.529Z,101918.22
2023-05-06T01:39:25.088Z,101918.22
2023-05-06T01:41:55.549Z,101904.25
2023-05-06T01:44:24.985Z,101907.75
2023-05-06T01:46:54.951Z,101899.25
2023-05-06T01:49:24.260Z,101902.06
2023-05-06T01:51:52.745Z,101901.91
2023-05-06T01:54:21.791Z,101907.59
2023-05-06T01:56:49.613Z,101918.47
2023-05-06T01:59:17.229Z,101903.13
2023-05-06T02:01:45.432Z,101912.66
2023-05-06T02:04:13.145Z,101919.75
2023-05-06T02:06:40.715Z,101920.59
2023-05-06T02:09:08.429Z,101918.34
2023-05-06T02:11:37.410Z,101916.38
2023-05-06T02:14:05.007Z,101929.34
2023-05-06T02:16:32.780Z,101939.94
2023-05-06T02:19:00.754Z,101930.47
2023-05-06T02:21:28.860Z,101931.03
2023-05-06T02:23:56.464Z,101929.91
2023-05-06T02:26:24.128Z,101933.69
2023-05-06T02:28:53.148Z,101928.94
2023-05-06T02:31:20.926Z,101933.25
2023-05-06T02:33:48.640Z,101925.75
2023-05-06T02:36:16.293Z,101931.88
2023-05-06T02:38:43.983Z,101924.50
2023-05-06T02:41:11.596Z,101930.75
2023-05-06T02:43:39.310Z,101931.16
2023-05-06T02:46:08.469Z,101938.69
2023-05-06T02:48:36.329Z,101932.56
2023-05-06T02:51:03.996Z,101941.63
2023-05-06T02:53:31.613Z,101912.94
2023-05-06T02:55:59.255Z,101927.97
2023-05-06T02:58:27.165Z,101931.19
2023-05-06T03:00:54.840Z,101925.31
2023-05-06T03:03:24.050Z,101926.41
2023-05-06T03:05:51.659Z,101937.84
2023-05-06T03:08:19.329Z,101924.50
2023-05-06T03:10:46.998Z,101926.28
2023-05-06T03:13:14.742Z,101923.66
2023-05-06T03:15:42.493Z,101920.31
2023-05-06T03:18:10.516Z,101914.56
2023-05-06T03:20:39.503Z,101926.00
2023-05-06T03:23:07.078Z,101919.75
2023-05-06T03:25:35.095Z,101919.31
2023-05-06T03:28:02.718Z,101918.22
2023-05-06T03:30:30.405Z,101921.41
2023-05-06T03:32:58.909Z,101926.69
2023-05-06T03:35:26.676Z,101916.53
2023-05-06T03:37:55.760Z,101910.97
2023-05-06T03:40:23.400Z,101914.72
2023-05-06T03:42:51.021Z,101921.56
2023-05-06T03:45:18.715Z,101905.09
2023-05-06T03:47:46.782Z,101917.66
2023-05-06T03:50:14.548Z,101909.72
2023-05-06T03:52:42.400Z,101918.50
2023-05-06T03:55:12.452Z,101911.38
2023-05-06T03:57:40.674Z,101895.75
2023-05-06T04:00:09.422Z,101913.06
2023-05-06T04:02:37.964Z,101910.13
2023-05-06T04:05:06.266Z,101911.81
2023-05-06T04:07:34.005Z,101923.34
2023-05-06T04:10:01.915Z,101915.28
2023-05-06T04:12:30.892Z,101921.72
2023-05-06T04:14:58.488Z,101916.25
2023-05-06T04:17:26.137Z,101916.41
2023-05-06T04:19:53.994Z,101922.50
2023-05-06T04:22:21.660Z,101915.41
2023-05-06T04:24:49.355Z,101911.91
2023-05-06T04:27:16.968Z,101905.66
2023-05-06T04:29:46.603Z,101916.81
2023-05-06T04:32:14.238Z,101916.53
2023-05-06T04:34:41.831Z,101927.81
2023-05-06T04:37:09.425Z,101907.63
2023-05-06T04:39:37.024Z,101922.94
2023-05-06T04:42:04.903Z,101928.09
2023-05-06T04:44:33.891Z,101931.59
2023-05-06T04:47:02.904Z,101942.19
2023-05-06T04:49:30.627Z,101930.63
2023-05-06T04:51:58.493Z,101935.75
2023-05-06T04:54:26.112Z,101936.88
2023-05-06T04:56:54.557Z,101944.84
2023-05-06T04:59:22.212Z,101941.78
2023-05-06T05:01:49.835Z,101947.63
2023-05-06T05:04:18.943Z,101944.16
2023-05-06T05:06:46.657Z,101950.25
2023-05-06T05:09:14.418Z,101947.88
2023-05-06T05:11:42.030Z,101948.19
2023-05-06T05:14:09.646Z,101949.28
2023-05-06T05:16:37.376Z,101954.03
2023-05-06T05:19:09.061Z,101951.78
2023-05-06T05:21:38.517Z,101958.78
2023-05-06T05:24:06.652Z,101980.13
2023-05-06T05:26:34.330Z,101965.03
2023-05-06T05:29:01.960Z,101962.25
2023-05-06T05:31:31.103Z,101964.91
2023-05-06T05:33:59.068Z,101955.44
2023-05-06T05:36:27.620Z,101963.78
2023-05-06T05:38:56.648Z,101966.00
2023-05-06T05:41:25.374Z,101969.94
2023-05-06T05:43:54.096Z,101967.97
2023-05-06T05:46:21.766Z,101973.84
2023-05-06T05:48:49.446Z,101961.28
2023-05-06T05:51:17.131Z,101972.16
2023-05-06T05:53:45.143Z,101970.06
2023-05-06T05:56:14.244Z,101973.16
2023-05-06T05:58:41.859Z,101971.31
2023-05-06T06:01:09.520Z,101968.81
2023-05-06T06:03:37.210Z,101966.56
2023-05-06T06:06:05.598Z,101971.03
2023-05-06T06:08:33.867Z,101984.28
2023-05-06T06:11:02.036Z,101978.84
2023-05-06T06:13:31.173Z,101983.59
2023-05-06T06:15:59.154Z,101983.16
2023-05-06T06:18:26.940Z,101980.50
2023-05-06T06:20:54.577Z,101984.28
2023-05-06T06:23:22.317Z,101981.22
2023-05-06T06:25:50.087Z,101982.88
2023-05-06T06:28:17.740Z,101982.03
2023-05-06T06:30:46.775Z,101983.16
2023-05-06T06:33:14.723Z,101984.69
2023-05-06T06:35:42.726Z,101984.00
2023-05-06T06:38:10.282Z,101993.06
2023-05-06T06:40:38.014Z,101974.66
2023-05-06T06:43:05.644Z,101985.53
2023-05-06T06:45:34.304Z,101985.81
2023-05-06T06:48:03.384Z,101985.25
2023-05-06T06:50:31.187Z,101982.31
2023-05-06T06:52:59.289Z,101984.00
2023-05-06T06:55:27.114Z,101978.53
2023-05-06T06:57:54.743Z,101983.84
2023-05-06T07:00:22.463Z,101982.47
2023-05-06T07:02:50.277Z,101980.91
2023-05-06T07:05:19.634Z,101983.81
2023-05-06T07:07:47.426Z,101986.91
2023-05-06T07:10:15.092Z,101988.84
2023-05-06T07:12:42.684Z,101983.25
2023-05-06T07:15:11.097Z,101996.53
2023-05-06T07:17:38.952Z,101997.63
2023-05-06T07:20:08.173Z,101993.47
2023-05-06T07:22:37.171Z,101989.41
2023-05-06T07:25:05.142Z,101990.81
2023-05-06T07:27:32.788Z,101998.22
2023-05-06T07:30:00.432Z,101998.19
2023-05-06T07:32:28.079Z,102005.28
2023-05-06T07:34:55.728Z,102000.50
2023-05-06T07:37:23.380Z,102012.41
2023-05-06T07:39:52.300Z,102013.38
2023-05-06T07:42:19.959Z,102020.75
2023-05-06T07:44:47.595Z,102027.88
2023-05-06T07:47:26.873Z,102018.94
2023-05-06T07:49:54.547Z,102021.88
2023-05-06T07:52:22.305Z,102026.31
2023-05-06T07:54:49.971Z,102025.19
2023-05-06T07:57:19.313Z,102020.16
2023-05-06T07:59:49.478Z,102024.22
2023-05-06T08:02:17.145Z,102025.84
2023-05-06T08:04:46.271Z,102029.06
2023-05-06T08:07:14.876Z,102030.59
2023-05-06T08:09:42.513Z,102030.19
2023-05-06T08:12:10.141Z,102031.56
2023-05-06T08:14:39.141Z,102026.69
2023-05-06T08:17:06.823Z,102034.66
2023-05-06T08:19:34.413Z,102037.03
2023-05-06T08:22:02.014Z,102036.56
2023-05-06T08:24:29.680Z,102033.78
2023-05-06T08:26:57.281Z,102044.13
2023-05-06T08:29:24.876Z,102047.63
2023-05-06T08:31:53.982Z,102047.25
2023-05-06T08:34:22.300Z,102047.53
2023-05-06T08:36:50.158Z,102045.34
2023-05-06T08:39:18.241Z,102048.69
2023-05-06T08:41:48.607Z,102052.91
2023-05-06T08:44:18.740Z,102053.16
2023-05-06T08:46:46.992Z,102054.13
2023-05-06T08:49:16.336Z,102060.13
2023-05-06T08:51:45.903Z,102059.31
2023-05-06T08:54:14.162Z,102059.75
2023-05-06T08:56:46.462Z,102063.34
2023-05-06T08:59:15.321Z,102056.22
2023-05-06T09:01:43.001Z,102063.31
2023-05-06T09:04:11.634Z,102063.31
2023-05-06T09:06:41.857Z,102067.59
2023-05-06T09:09:09.499Z,102064.06
2023-05-06T09:11:38.904Z,102065.44
2023-05-06T09:14:12.176Z,102058.00
2023-05-06T09:16:41.145Z,102066.56
2023-05-06T09:19:08.863Z,102065.16
2023-05-06T09:21:38.228Z,102066.28
2023-05-06T09:24:09.490Z,102058.44
2023-05-06T09:26:38.904Z,102073.84
2023-05-06T09:29:07.599Z,102070.50
2023-05-06T09:31:42.004Z,102069.22
2023-05-06T09:34:09.946Z,102078.41
2023-05-06T09:36:37.853Z,102071.41
2023-05-06T09:39:07.575Z,102074.09
2023-05-06T09:41:35.211Z,102075.25
2023-05-06T09:44:03.039Z,102069.81
2023-05-06T09:46:31.311Z,102067.56
2023-05-06T09:48:59.915Z,102077.75
2023-05-06T09:51:28.735Z,102074.22
2023-05-06T09:53:57.690Z,102075.47
2023-05-06T09:56:27.588Z,102073.06
2023-05-06T09:58:56.864Z,102067.78
2023-05-06T10:01:36.200Z,102073.94
2023-05-06T10:04:09.456Z,102081.56
2023-05-06T10:06:39.622Z,102079.06
2023-05-06T10:09:09.126Z,102079.19
2023-05-06T10:11:38.537Z,102078.19
2023-05-06T10:14:07.641Z,102074.25
2023-05-06T10:16:36.078Z,102080.19
2023-05-06T10:19:06.522Z,102071.34
2023-05-06T10:21:36.981Z,102073.03
2023-05-06T10:24:08.962Z,102061.31
2023-05-06T10:26:39.099Z,102062.50
2023-05-06T10:29:11.087Z,102059.03
2023-05-06T10:31:44.497Z,102066.22
2023-05-06T10:34:12.141Z,102063.66
2023-05-06T10:36:41.371Z,102068.03
2023-05-06T10:39:12.889Z,102065.00
2023-05-06T10:41:41.901Z,102064.31
2023-05-06T10:44:10.077Z,102072.63
2023-05-06T10:47:00.449Z,102064.91
2023-05-06T10:49:29.069Z,102065.81
2023-05-06T10:52:14.089Z,102063.56
2023-05-06T10:54:49.913Z,102066.28
2023-05-06T10:57:20.680Z,102072.75
2023-05-06T10:59:48.614Z,102064.50
2023-05-06T11:02:21.339Z,102065.47
2023-05-06T11:04:54.143Z,102079.69
2023-05-06T11:07:25.504Z,102064.63
2023-05-06T11:09:57.474Z,102065.84
2023-05-06T11:12:49.052Z,102070.94
2023-05-06T11:15:35.899Z,102067.00
2023-05-06T11:18:44.931Z,102067.53
2023-05-06T11:21:41.012Z,102054.16
2023-05-06T11:24:13.629Z,102071.47
2023-05-06T11:26:42.679Z,102077.56
2023-05-06T11:29:10.344Z,102061.19
2023-05-06T11:31:42.611Z,102070.47
2023-05-06T11:34:14.153Z,102069.34
2023-05-06T11:36:50.071Z,102074.78
2023-05-06T11:39:17.681Z,102073.00
2023-05-06T11:41:45.435Z,102083.25
2023-05-06T11:44:14.723Z,102073.22
2023-05-06T11:46:44.931Z,102077.16
2023-05-06T11:49:15.931Z,102088.56
2023-05-06T11:51:43.579Z,102075.94
2023-05-06T11:54:12.075Z,102084.44
2023-05-06T11:56:45.714Z,102084.66
2023-05-06T11:59:13.536Z,102086.78
2023-05-06T12:01:45.019Z,102099.44
2023-05-06T12:04:13.464Z,102092.06
2023-05-06T12:06:42.553Z,102103.84
2023-05-06T12:09:13.227Z,102104.91
2023-05-06T12:11:44.286Z,102103.47
2023-05-06T12:14:13.330Z,102105.00
2023-05-06T12:16:42.338Z,102110.94
2023-05-06T12:19:10.810Z,102120.72
2023-05-06T12:21:39.526Z,102121.38
2023-05-06T12:24:08.862Z,102120.50
2023-05-06T12:26:47.447Z,102119.81
2023-05-06T12:29:17.679Z,102120.66
2023-05-06T12:31:47.508Z,102125.13
2023-05-06T12:34:16.118Z,102110.31
2023-05-06T12:36:46.331Z,102119.03
2023-05-06T12:39:16.273Z,102107.56
2023-05-06T12:41:46.498Z,102118.59
2023-05-06T12:44:33.796Z,102122.69
2023-05-06T12:47:02.555Z,102118.59
2023-05-06T12:49:48.118Z,102130.66
2023-05-06T12:52:16.914Z,102133.78
2023-05-06T12:54:46.268Z,102135.78
2023-05-06T12:57:14.207Z,102127.78
2023-05-06T12:59:42.343Z,102133.50
2023-05-06T13:02:10.632Z,102131.00
2023-05-06T13:04:38.464Z,102135.53
2023-05-06T13:07:06.515Z,102138.56
2023-05-06T13:09:34.346Z,102146.56
2023-05-06T13:12:04.601Z,102132.03
2023-05-06T13:14:32.289Z,102140.41
2023-05-06T13:17:04.547Z,102147.56
2023-05-06T13:19:33.449Z,102133.66
2023-05-06T13:22:01.675Z,102137.72
2023-05-06T13:24:29.569Z,102150.34
2023-05-06T13:26:59.384Z,102137.28
2023-05-06T13:29:29.353Z,102139.53
2023-05-06T13:31:57.058Z,102140.06
2023-05-06T13:34:24.822Z,102142.06
2023-05-06T13:36:54.415Z,102142.63
2023-05-06T13:39:22.575Z,102141.16
2023-05-06T13:41:50.929Z,102146.41
2023-05-06T13:44:19.060Z,102136.50
2023-05-06T13:46:48.383Z,102151.88
2023-05-06T13:49:16.118Z,102143.81
2023-05-06T13:51:43.844Z,102146.91
2023-05-06T13:54:11.460Z,102152.31
2023-05-06T13:56:39.045Z,102141.44
2023-05-06T13:59:08.164Z,102144.38
2023-05-06T14:01:36.539Z,102142.88
2023-05-06T14:04:06.033Z,102143.78
2023-05-06T14:06:33.726Z,102152.19
2023-05-06T14:09:01.544Z,102154.19
2023-05-06T14:11:29.125Z,102148.88
2023-05-06T14:13:56.880Z,102155.03
2023-05-06T14:16:24.796Z,102143.47
2023-05-06T14:18:52.448Z,102157.34
2023-05-06T14:21:21.586Z,102154.25
2023-05-06T14:23:49.249Z,102166.16
2023-05-06T14:26:16.846Z,102144.47
2023-05-06T14:28:44.407Z,102146.72
2023-05-06T14:31:12.039Z,102152.88
2023-05-06T14:33:39.836Z,102139.34
2023-05-06T14:36:07.942Z,102144.91
2023-05-06T14:38:36.893Z,102157.47
2023-05-06T14:41:04.646Z,102170.94
2023-05-06T14:43:32.286Z,102155.13
2023-05-06T14:45:59.936Z,102156.97
2023-05-06T14:48:27.595Z,102146.16
2023-05-06T14:50:55.241Z,102148.53
2023-05-06T14:53:22.874Z,102157.06
2023-05-06T14:55:51.829Z,102143.63
2023-05-06T14:58:19.482Z,102140.38
2023-05-06T15:00:47.098Z,102137.44
2023-05-06T15:03:15.089Z,102138.16
2023-05-06T15:05:42.768Z,102122.63
2023-05-06T15:08:10.868Z,102147.09
2023-05-06T15:10:38.516Z,102132.53
2023-05-06T15:13:07.495Z,102124.84
2023-05-06T15:15:35.156Z,102137.59
2023-05-06T15:18:02.895Z,102133.50
2023-05-06T15:20:30.831Z,102135.88
2023-05-06T15:22:59.271Z,102116.47
2023-05-06T15:25:34.884Z,102128.72
2023-05-06T15:28:03.837Z,102135.44
2023-05-06T15:30:32.867Z,102132.06
2023-05-06T15:33:02.093Z,102128.97
2023-05-06T15:35:31.181Z,102128.81
2023-05-06T15:37:59.420Z,102139.44
2023-05-06T15:40:27.578Z,102147.88
2023-05-06T15:42:55.204Z,102131.94
2023-05-06T15:45:23.376Z,102143.16
2023-05-06T15:47:54.098Z,102147.09
2023-05-06T15:50:32.828Z,102156.75
2023-05-06T15:53:02.124Z,102148.53
2023-05-06T15:55:30.242Z,102147.97
2023-05-06T15:58:00.566Z,102158.88
2023-05-06T16:00:28.471Z,102156.88
2023-05-06T16:02:58.048Z,102160.00
2023-05-06T16:05:25.693Z,102166.44
2023-05-06T16:07:55.188Z,102155.09
2023-05-06T16:10:22.807Z,102163.63
2023-05-06T16:12:50.410Z,102166.28
2023-05-06T16:15:18.432Z,102170.63
2023-05-06T16:17:46.111Z,102160.69
2023-05-06T16:20:15.419Z,102162.50
2023-05-06T16:22:43.030Z,102164.78
2023-05-06T16:25:10.849Z,102153.84
2023-05-06T16:27:38.403Z,102154.53
2023-05-06T16:30:07.005Z,102155.81
2023-05-06T16:32:34.650Z,102161.66
2023-05-06T16:35:02.384Z,102153.69
2023-05-06T16:37:31.692Z,102162.25
2023-05-06T16:39:59.305Z,102162.13
2023-05-06T16:42:26.912Z,102154.13
2023-05-06T16:44:54.550Z,102160.31
2023-05-06T16:47:24.092Z,102165.31
2023-05-06T16:49:51.991Z,102155.38
2023-05-06T16:52:20.086Z,102166.00
2023-05-06T16:54:51.232Z,102163.63
2023-05-06T16:57:19.123Z,102165.31
2023-05-06T16:59:46.758Z,102161.97
2023-05-06T17:02:14.449Z,102166.75
2023-05-06T17:04:42.500Z,102145.91
2023-05-06T17:07:11.189Z,102156.53
2023-05-06T17:09:39.435Z,102163.16
2023-05-06T17:12:08.851Z,102154.19
2023-05-06T17:14:36.644Z,102158.78
2023-05-06T17:17:05.423Z,102156.03
2023-05-06T17:19:34.047Z,102148.06
2023-05-06T17:22:02.009Z,102159.19
2023-05-06T17:24:29.617Z,102155.69
2023-05-06T17:26:57.213Z,102162.03
2023-05-06T17:29:26.196Z,102156.16
2023-05-06T17:31:53.811Z,102157.84
2023-05-06T17:36:53.941Z,102171.81
2023-05-06T17:39:21.585Z,102170.13
2023-05-06T17:41:50.244Z,102173.78
2023-05-06T17:44:18.388Z,102164.81
2023-05-06T17:46:47.505Z,102175.97
2023-05-06T17:49:15.150Z,102175.84
2023-05-06T17:51:45.432Z,102177.97
2023-05-06T17:54:13.466Z,102170.66
2023-05-06T17:56:41.039Z,102175.84
2023-05-06T17:59:08.641Z,102176.38
2023-05-06T18:01:36.381Z,102176.38
2023-05-06T18:04:05.519Z,102177.28
2023-05-06T18:06:33.185Z,102183.00
2023-05-06T18:09:00.789Z,102189.47
2023-05-06T18:11:28.509Z,102187.19
2023-05-06T18:13:56.695Z,102192.50
2023-05-06T18:16:24.383Z,102184.28
2023-05-06T18:18:51.975Z,102175.63
2023-05-06T18:21:21.161Z,102179.25
2023-05-06T18:23:51.434Z,102179.13
2023-05-06T18:26:39.774Z,102182.19
2023-05-06T18:29:09.273Z,102184.72
2023-05-06T18:31:36.869Z,102186.94
2023-05-06T18:34:04.549Z,102188.63
2023-05-06T18:36:34.905Z,102200.38
2023-05-06T18:39:02.717Z,102200.66
2023-05-06T18:41:30.345Z,102202.06
2023-05-06T18:43:58.192Z,102209.88
2023-05-06T18:46:26.972Z,102204.56
2023-05-06T18:48:55.932Z,102201.22
2023-05-06T18:51:23.674Z,102205.41
2023-05-06T18:53:52.669Z,102202.56
2023-05-06T18:56:21.357Z,102218.13
2023-05-06T18:58:49.002Z,102213.66
2023-05-06T19:01:17.331Z,102215.06
2023-05-06T19:03:45.055Z,102223.69
2023-05-06T19:06:12.704Z,102213.75
2023-05-06T19:08:40.692Z,102214.47
2023-05-06T19:11:15.481Z,102214.63
2023-05-06T19:13:43.457Z,102214.63
2023-05-06T19:16:11.168Z,102216.44
2023-05-06T19:18:38.818Z,102223.44
2023-05-06T19:21:06.669Z,102226.66
2023-05-06T19:23:34.282Z,102228.19
2023-05-06T19:26:02.239Z,102228.06
2023-05-06T19:28:31.419Z,102222.59
2023-05-06T19:30:59.050Z,102230.00
2023-05-06T19:33:26.911Z,102221.72
2023-05-06T19:35:54.640Z,102238.22
2023-05-06T19:38:22.290Z,102234.16
2023-05-06T19:40:49.925Z,102229.31
2023-05-06T19:43:17.495Z,102225.97
2023-05-06T19:45:46.627Z,102221.34
2023-05-06T19:48:14.577Z,102232.25
2023-05-06T19:50:42.286Z,102223.72
2023-05-06T19:53:09.896Z,102220.38
2023-05-06T19:55:37.656Z,102219.06
2023-05-06T19:58:05.351Z,102227.88
2023-05-06T20:00:33.215Z,102215.06
2023-05-06T20:03:02.344Z,102224.00
2023-05-06T20:05:31.391Z,102216.16
2023-05-06T20:08:00.042Z,102221.19
2023-05-06T20:10:28.007Z,102215.06
2023-05-06T20:12:57.641Z,102222.88
2023-05-06T20:15:26.468Z,102214.34
2023-05-06T20:17:54.166Z,102231.56
2023-05-06T20:20:23.430Z,102230.00
2023-05-06T20:22:51.137Z,102215.91
2023-05-06T20:25:18.882Z,102224.16
2023-05-06T20:27:46.650Z,102224.97
2023-05-06T20:30:14.507Z,102231.97
2023-05-06T20:32:42.278Z,102225.13
2023-05-06T20:35:10.325Z,102229.06
2023-05-06T20:37:39.500Z,102232.25
2023-05-06T20:40:09.660Z,102221.81
2023-05-06T20:42:37.478Z,102243.56
2023-05-06T20:45:06.084Z,102237.56
2023-05-06T20:47:33.731Z,102237.03
2023-05-06T20:50:03.840Z,102240.97
2023-05-06T20:52:31.649Z,102248.47
2023-05-06T20:55:01.050Z,102245.16
2023-05-06T20:57:29.264Z,102244.31
2023-05-06T20:59:56.845Z,102234.38
2023-05-06T21:02:24.559Z,102247.34
2023-05-06T21:04:52.212Z,102241.38
2023-05-06T21:07:19.779Z,102232.00
2023-05-06T21:09:47.976Z,102238.16
2023-05-06T21:12:17.127Z,102230.19
2023-05-06T21:14:44.700Z,102233.28
2023-05-06T21:17:12.643Z,102221.53
2023-05-06T21:19:40.263Z,102229.22
2023-05-06T21:22:09.888Z,102231.03
2023-05-06T21:24:37.472Z,102228.09
2023-05-06T21:27:05.416Z,102239.28
2023-05-06T21:29:34.663Z,102227.81
2023-05-06T21:32:02.242Z,102237.31
2023-05-06T21:34:30.354Z,102237.59
2023-05-06T21:36:58.198Z,102231.31
2023-05-06T21:39:25.950Z,102236.75
2023-05-06T21:41:53.814Z,102224.19
2023-05-06T21:44:21.671Z,102234.53
2023-05-06T21:46:50.694Z,102232.72
2023-05-06T21:49:19.434Z,102242.34
2023-05-06T21:51:47.173Z,102241.81
2023-05-06T21:54:15.409Z,102239.84
2023-05-06T21:56:43.008Z,102236.75
2023-05-06T21:59:10.620Z,102242.78
2023-05-06T22:01:38.268Z,102243.91
2023-05-06T22:04:11.470Z,102236.16
2023-05-06T22:06:39.609Z,102229.50
2023-05-06T22:09:09.375Z,102217.47
2023-05-06T22:11:38.586Z,102232.44
2023-05-06T22:14:06.913Z,102227.25
2023-05-06T22:16:37.974Z,102226.72
2023-05-06T22:19:07.705Z,102225.72
2023-05-06T22:21:35.986Z,102223.91
2023-05-06T22:24:03.882Z,102226.84
2023-05-06T22:26:32.973Z,102230.34
2023-05-06T22:29:00.546Z,102239.00
2023-05-06T22:31:28.171Z,102246.41
2023-05-06T22:33:58.048Z,102248.94
2023-05-06T22:36:28.984Z,102242.50
2023-05-06T22:38:56.976Z,102241.25
2023-05-06T22:41:24.566Z,102244.31
2023-05-06T22:43:52.156Z,102256.91
2023-05-06T22:46:20.261Z,102248.34
2023-05-06T22:48:48.247Z,102238.84
2023-05-06T22:51:16.650Z,102255.22
2023-05-06T22:53:45.966Z,102245.28
2023-05-06T22:56:13.825Z,102254.09
2023-05-06T22:58:41.475Z,102250.19
2023-05-06T23:01:09.080Z,102258.41
2023-05-06T23:03:37.283Z,102252.09
2023-05-06T23:06:06.018Z,102248.09
2023-05-06T23:08:33.782Z,102236.34
2023-05-06T23:11:02.929Z,102242.63
2023-05-06T23:13:31.273Z,102240.97
2023-05-06T23:15:59.033Z,102247.38
2023-05-06T23:18:26.630Z,102251.59
2023-05-06T23:20:54.217Z,102250.88
2023-05-06T23:23:21.927Z,102247.09
2023-05-06T23:25:49.509Z,102234.53
2023-05-06T23:28:18.726Z,102238.84
2023-05-06T23:30:47.321Z,102232.28
2023-05-06T23:33:15.270Z,102245.56
2023-05-06T23:35:42.910Z,102251.16
2023-05-06T23:38:11.299Z,102245.84
2023-05-06T23:40:39.016Z,102257.31
2023-05-06T23:43:07.036Z,102252.16
2023-05-06T23:45:36.287Z,102253.53
2023-05-06T23:48:03.976Z,102251.59
2023-05-06T23:50:31.607Z,102253.69
2023-05-06T23:52:59.272Z,102258.28
2023-05-06T23:55:27.434Z,102251.88
2023-05-06T23:57:55.758Z,102251.31
